Latest Coastal Weather Observations for Gladstone

IDQ60701

Issued at 9:55 am EST Tuesday 2 September 2014 (issued every 10 minutes, with the page automatically refreshed every 10 minutes)

About coastal observations | Map of coastal stations | Coastal observations for QLD | Marine services | Other Formats
Station Details ID: 039123 Name: GLADSTONE RADAR Lat: -23.86 Lon: 151.26 Height: 74.5 m
Data from the previous 72 hours. | See also: Recent months at Gladstone
Date/Time
EST
Temp

°C
Wind Pressure Rain
since 9am
mm
Weather Cloud Vis
km
Sea
Height
m
Swell
Dir
 
Speed
knots
Gust
knots
hPa Trend Height
m
Period
s
Dir
02/09:30am 21.8 WNW 7 11 1016.8 - 0.0 - - - - - - -
02/09:00am 20.0 WNW 8 13 1017.1 - 0.0 - - - - - - -
02/08:30am 18.9 W 4 9 1017.2 - 0.0 - - - - - - -
02/08:00am 17.3 W 4 7 1017.2 - 0.0 - - - - - - -
02/07:30am 16.1 WSW 3 5 1017.0 - 0.0 - - - - - - -
02/07:00am 15.2 SW 3 4 1016.7 - 0.0 - - - - - - -
02/06:30am 14.9 SW 4 6 1016.8 - 0.0 - - - - - - -
02/06:00am 14.8 SW 4 5 1016.7 - 0.0 - - - - - - -
02/05:30am 14.9 SW 4 6 1016.7 - 0.0 - - - - - - -
02/05:00am 14.9 SW 4 5 1016.6 - 0.0 - - - - - - -
02/04:30am 15.2 WSW 4 5 1016.3 - 0.0 - - - - - - -
02/04:00am 15.6 W 3 5 1016.2 - 0.0 - - - - - - -
02/03:30am 15.3 WSW 4 5 1016.3 - 0.0 - - - - - - -
02/03:00am 15.3 SW 4 5 1016.7 - 0.0 - - - - - - -
02/02:30am 15.4 SW 4 6 1016.7 - 0.0 - - - - - - -
02/02:00am 15.8 SW 4 5 1017.0 - 0.0 - - - - - - -
02/01:30am 16.4 W 5 8 1016.8 - 0.0 - - - - - - -
02/01:00am 16.4 W 4 5 1017.5 - 0.0 - - - - - - -
02/12:30am 16.2 SW 4 5 1017.5 - 0.0 - - - - - - -
02/12:00am 16.5 SW 4 5 1017.6 - 0.0 - - - - - - -
 
Date/Time
EST
Temp

°C
Wind Pressure Rain
since 9am
mm
Weather Cloud Vis
km
Sea
Height
m
Swell
Dir
 
Speed
knots
Gust
knots
hPa Trend Height
m
Period
s
Dir
01/11:30pm 16.9 W 4 5 1017.7 - 0.0 - - - - - - -
01/11:00pm 17.3 W 4 5 1018.0 - 0.0 - - - - - - -
01/10:30pm 17.3 WSW 4 5 1018.2 - 0.0 - - - - - - -
01/10:00pm 18.2 NNW 4 5 1017.8 - 0.0 - - - - - - -
01/09:30pm 18.4 NW 5 5 1018.2 - 0.0 - - - - - - -
01/09:00pm 18.1 NW 5 6 1018.3 - 0.0 - - - - - - -
01/08:30pm 18.4 NNW 5 7 1018.1 - 0.0 - - - - - - -
01/08:00pm 18.3 NNW 5 6 1017.7 - 0.0 - - - - - - -
01/07:30pm 18.4 NNW 4 7 1018.0 - 0.0 - - - - - - -
01/07:00pm 18.5 NNE 6 10 1017.6 - 0.0 - - - - - - -
01/06:30pm 18.9 NNE 5 9 1017.0 - 0.0 - - - - - - -
01/06:00pm 19.6 NNE 5 8 1017.0 - 0.0 - - - - - - -
01/05:30pm 20.9 N 7 11 1016.6 - 0.0 - - - - - - -
01/05:00pm 21.8 NNE 7 11 1016.6 - 0.0 - - - - - - -
01/04:30pm 22.3 NNE 8 13 1016.5 - 0.0 - - - - - - -
01/04:00pm 23.4 NNE 8 13 1016.2 - 0.0 - - - - - - -
01/03:30pm 24.3 NNE 7 13 1016.3 - 0.0 - - - - - - -
01/03:00pm 24.8 NE 8 13 1016.4 - 0.0 - - - - - - -
01/02:30pm 25.8 NNE 7 13 1016.6 - 0.0 - - - - - - -
01/02:00pm 25.4 NNE 7 13 1016.7 - 0.0 - - - - - - -
01/01:30pm 25.9 NE 7 13 1017.0 - 0.0 - - - - - - -
01/01:00pm 27.2 NE 7 11 1017.8 - 0.0 - - - - - - -
01/12:30pm 27.6 NE 7 11 1018.4 - 0.0 - - - - - - -
01/12:00pm 26.7 NNE 6 9 1019.0 - 0.0 - - - - - - -
01/11:30am 26.5 NE 5 10 1018.6 - 0.0 - - - - - - -
01/11:00am 23.8 N 3 8 1018.6 - 0.0 - - - - - - -
01/10:30am 23.0 WSW 3 7 1019.5 - 0.0 - - - - - - -
01/10:00am 22.3 WSW 3 8 1019.9 - 0.0 - - - - - - -
01/09:30am 20.7 WSW 4 7 1020.3 - 0.0 - - - - - - -
01/09:00am 19.7 WSW 2 6 1020.4 - 0.0 - - - - - - -
01/08:30am 18.6 SW 3 7 1020.2 - 0.0 - - - - - - -
01/08:00am 17.2 SSW 4 7 1020.1 - 0.0 - - - - - - -
01/07:30am 16.5 SSW 4 7 1019.5 - 0.0 - - - - - - -
01/07:00am 15.9 SSW 4 5 1019.2 - 0.0 - - - - - - -
01/06:30am 15.7 SSW 3 4 1018.6 - 0.0 - - - - - - -
01/06:00am 15.3 SSW 4 5 1018.3 - 0.0 - - - - - - -
01/05:30am 15.3 SSW 2 4 1018.0 - 0.0 - - - - - - -
01/05:00am 15.2 SSW 4 5 1018.0 - 0.0 - - - - - - -
01/04:30am 15.2 SSW 4 5 1017.9 - 0.0 - - - - - - -
01/04:00am 15.4 SSW 4 5 1017.8 - 0.0 - - - - - - -
01/03:30am 15.8 SW 3 4 1017.7 - 0.0 - - - - - - -
01/03:00am 15.7 SSW 3 4 1017.8 - 0.0 - - - - - - -
01/02:30am 15.8 SSW 4 5 1018.0 - 0.0 - - - - - - -
01/02:00am 15.9 SSW 4 5 1018.1 - 0.0 - - - - - - -
01/01:30am 15.9 SW 4 5 1018.3 - 0.0 - - - - - - -
01/01:00am 15.9 SSW 4 5 1018.4 - 0.0 - - - - - - -
01/12:30am 16.0 SSW 4 5 1018.5 - 0.0 - - - - - - -
01/12:00am 16.1 SW 4 5 1018.7 - 0.0 - - - - - - -
 
Date/Time
EST
Temp

°C
Wind Pressure Rain
since 9am
mm
Weather Cloud Vis
km
Sea
Height
m
Swell
Dir
 
Speed
knots
Gust
knots
hPa Trend Height
m
Period
s
Dir
31/11:30pm 16.3 WSW 4 6 1018.7 - 0.0 - - - - - - -
31/11:00pm 16.6 W 4 5 1018.8 - 0.0 - - - - - - -
31/10:30pm 17.2 WNW 5 7 1018.9 - 0.0 - - - - - - -
31/10:00pm 17.9 NNW 6 8 1018.9 - 0.0 - - - - - - -
31/09:30pm 17.8 N 5 7 1018.7 - 0.0 - - - - - - -
31/09:00pm 17.4 NNE 4 6 1018.7 - 0.0 - - - - - - -
31/08:30pm 17.7 N 4 7 1018.5 - 0.0 - - - - - - -
31/08:00pm 17.6 NNE 5 7 1018.1 - 0.0 - - - - - - -
31/07:30pm 17.8 NNE 5 8 1017.6 - 0.0 - - - - - - -
31/07:00pm 17.9 N 5 6 1017.2 - 0.0 - - - - - - -
31/06:30pm 18.1 N 4 7 1016.6 - 0.0 - - - - - - -
31/06:00pm 18.5 NNE 6 10 1016.3 - 0.0 - - - - - - -
31/05:30pm 19.3 NE 6 9 1016.0 - 0.0 - - - - - - -
31/05:00pm 20.0 NE 7 11 1015.7 - 0.0 - - - - - - -
31/04:30pm 21.3 NE 7 12 1015.4 - 0.0 - - - - - - -
31/04:00pm 23.5 NE 6 10 1015.1 - 0.0 - - - - - - -
31/03:30pm 23.8 NNE 6 11 1015.1 - 0.0 - - - - - - -
31/03:00pm 23.4 NNE 8 13 1015.1 - 0.0 - - - - - - -
31/02:30pm 23.1 NE 9 16 1015.3 - 0.0 - - - - - - -
31/02:00pm 23.7 NE 9 13 1015.6 - 0.0 - - - - - - -
31/01:30pm 24.1 NE 9 15 1015.9 - 0.0 - - - - - - -
31/01:00pm 25.1 NE 9 13 1016.4 - 0.0 - - - - - - -
31/12:30pm 26.1 NE 7 13 1016.8 - 0.0 - - - - - - -
31/12:00pm 26.0 ENE 8 11 1017.2 - 0.0 - - - - - - -
31/11:30am 24.9 W 4 7 1017.7 - 0.0 - - - - - - -
31/11:00am 23.4 WSW 3 5 1018.4 - 0.0 - - - - - - -
31/10:30am 23.4 SW 3 6 1018.7 - 0.0 - - - - - - -
31/10:00am 22.2 SW 4 9 1019.1 - 0.0 - - - - - - -
31/09:30am 20.6 SW 2 5 1019.2 - 0.0 - - - - - - -
31/09:00am 18.3 SW 4 7 1019.4 - 0.0 - - - - - - -
31/08:30am 16.8 SSW 4 7 1019.5 - 0.0 - - - - - - -
31/08:00am 15.4 SSW 4 7 1019.4 - 0.0 - - - - - - -
31/07:30am 15.7 SSW 1 4 1019.0 - 0.0 - - - - - - -
31/07:00am 15.4 CALM 0 3 1018.8 - 0.0 - - - - - - -
31/06:30am 15.3 S 3 4 1018.4 - 0.0 - - - - - - -
31/06:00am 14.9 SSW 3 4 1018.1 - 0.0 - - - - - - -
31/05:30am 14.8 S 4 5 1017.7 - 0.0 - - - - - - -
31/05:00am 14.8 SSW 4 5 1017.5 - 0.0 - - - - - - -
31/04:30am 15.0 SSW 4 5 1017.5 - 0.0 - - - - - - -
31/04:00am 15.7 SSW 3 4 1017.6 - 0.0 - - - - - - -
31/03:30am 15.6 SSW 4 5 1017.5 - 0.0 - - - - - - -
31/03:00am 15.4 SSW 4 5 1017.4 - 0.0 - - - - - - -
31/02:30am 15.5 SSW 4 5 1017.6 - 0.0 - - - - - - -
31/02:00am 15.6 SSW 4 4 1017.8 - 0.0 - - - - - - -
31/01:30am 16.0 SSW 3 4 1018.0 - 0.0 - - - - - - -
31/01:00am 16.1 WSW 3 4 1018.4 - 0.0 - - - - - - -
31/12:30am 16.4 W 3 4 1018.5 - 0.0 - - - - - - -
31/12:00am 16.2 SW 3 5 1018.7 - 0.0 - - - - - - -
 
Date/Time
EST
Temp

°C
Wind Pressure Rain
since 9am
mm
Weather Cloud Vis
km
Sea
Height
m
Swell
Dir
 
Speed
knots
Gust
knots
hPa Trend Height
m
Period
s
Dir
30/11:30pm 16.2 WSW 4 5 1018.7 - 0.0 - - - - - - -
30/11:00pm 16.9 WNW 5 7 1018.8 - 0.0 - - - - - - -
30/10:30pm 17.6 NNW 6 8 1018.7 - 0.0 - - - - - - -
30/10:00pm 17.5 NW 6 7 1018.8 - 0.0 - - - - - - -
30/09:30pm 18.0 NNW 7 9 1018.8 - 0.0 - - - - - - -
30/09:00pm 17.9 NNW 6 9 1018.8 - 0.0 - - - - - - -
30/08:30pm 17.2 N 3 6 1018.8 - 0.0 - - - - - - -
30/08:00pm 17.7 NNW 5 7 1018.6 - 0.0 - - - - - - -
30/07:30pm 18.2 NNW 6 10 1018.1 - 0.0 - - - - - - -
30/07:00pm 17.8 N 4 6 1017.7 - 0.0 - - - - - - -
30/06:30pm 18.5 NNW 5 9 1016.9 - 0.0 - - - - - - -
30/06:00pm 18.5 N 5 8 1016.5 - 0.0 - - - - - - -
30/05:30pm 18.9 NNE 4 9 1016.2 - 0.0 - - - - - - -
30/05:00pm 19.5 NNE 7 11 1016.0 - 0.0 - - - - - - -
30/04:30pm 20.1 NE 9 13 1015.8 - 0.0 - - - - - - -
30/04:00pm 21.2 NE 9 13 1015.8 - 0.0 - - - - - - -
30/03:30pm 22.1 NNE 8 15 1015.6 - 0.0 - - - - - - -
30/03:00pm 22.4 NE 9 15 1015.7 - 0.0 - - - - - - -
30/02:30pm 23.0 NE 11 16 1015.9 - 0.0 - - - - - - -
30/02:00pm 24.4 NE 9 15 1016.2 - 0.0 - - - - - - -
30/01:30pm 25.6 NNE 7 13 1016.8 - 0.0 - - - - - - -
30/01:00pm 25.6 W 4 8 1017.3 - 0.0 - - - - - - -
30/12:30pm 24.2 WNW 5 8 1018.0 - 0.0 - - - - - - -
30/12:00pm 24.3 WNW 3 5 1018.8 - 0.0 - - - - - - -
30/11:30am 23.8 WSW 3 5 1019.4 - 0.0 - - - - - - -
30/11:00am 23.1 SW 4 7 1019.9 - 0.0 - - - - - - -
30/10:30am 21.7 WSW 4 6 1020.3 - 0.0 - - - - - - -
30/10:00am 22.1 WSW 4 6 1020.6 - 0.0 - - - - - - -

Other Formats:

Comma delimited format used in spreadsheet applications
http://www.bom.gov.au/fwo/IDQ60701/IDQ60701.94380.axf

JavaScript Object Notation format (JSON) in row-major order
http://www.bom.gov.au/fwo/IDQ60701/IDQ60701.94380.json